Racecast

SEC HS Jamboree #2 (Red)

Munson Park · 5000m · Boys · Junior Varsity · 2012-09-27 · MI

Course difficulty: +0.6%i

Race-day weather: 60°F · wind 44 mph · humidity 54%

View full meet →

Team scores

Place Team Points 12345 67
1 Saline (MI) 15 1 2 3 4 5 6 8
2 Ann Arbor Pioneer (MI) 49 7 9 10 11 12 14 17
3 Ann Arbor Huron (MI) 92 15 16 19 20 22 26 29
4 Temperance Bedford (MI) 99 13 18 21 23 24 25 27
5 Monroe (MI) 154 28 30 31 32 33

Computed: five scorers, two displacers, incomplete teams removed. Not scored, fewer than five finishers: Ann Arbor Skyline (4).

Results

Place Athlete Grade School Time Ratingi Points
1 Matt Wilson 11 Saline (MI) 1 17:27.6 PR 117.9 1
2 Brennan Corcoran 10 Saline (MI) 2 17:33.5 PR 117.2 2
3 Thomas Furey 11 Saline (MI) 3 17:36.5 PR 116.9 3
4 Diego Morse 10 Saline (MI) 4 17:37.1 PR 116.9 4
5 Brian Blankenship 9 Saline (MI) 5 17:37.5 PR 116.8 5
6 Bryan Adamovicz 9 Saline (MI) 6 17:45.9 PR 115.9 6
7 Dario Potter 10 Ann Arbor Pioneer (MI) 1 17:53.5 PR 115.1 7
8 Russell Warila 11 Saline (MI) 7 17:55.8 PR 114.8 8
9 Mitchell Tolly 12 Saline (MI) 8 18:00.1 PR 114.4
10 Samuel Cayen 10 Saline (MI) 9 18:07.5 PR 113.6
11 Lee Luckhardt 11 Saline (MI) 10 18:08.5 SR 113.5
12 John Davis 11 Saline (MI) 11 18:09.1 PR 113.4
13 Robby Frakes 12 Ann Arbor Pioneer (MI) 2 18:09.5 PR 113.4 9
14 Kaj Althaus 11 Saline (MI) 12 18:14.2 112.9
15 William Yang 10 Ann Arbor Pioneer (MI) 3 18:17.2 PR 112.6 10
16 Riley McCune 12 Saline (MI) 13 18:19.1 112.4
17 Stone Mathers 10 Ann Arbor Pioneer (MI) 4 18:19.5 PR 112.3 11
18 Sean Crowley 9 Saline (MI) 14 18:20.2 112.3
19 Will Jibson 10 Ann Arbor Pioneer (MI) 5 18:20.4 PR 112.3 12
20 Eduardo Gonzalez 10 Saline (MI) 15 18:24.1 PR 111.9
21 Jack McGreal 10 Saline (MI) 16 18:24.7 111.8
22 Alex Hunter 12 Saline (MI) 17 18:25 SR 111.8
23 Derek Jordan 9 Saline (MI) 18 18:28 111.5
24 John Nocella 11 Temperance Bedford (MI) 1 18:31.2 PR 111.2 13
25 Theodore Lenk 10 Saline (MI) 19 18:34 PR 110.9
26 Jacob Ehrman 9 Saline (MI) 20 18:36.9 110.6
27 Abraham Frey 11 Saline (MI) 21 18:37.9 PR 110.5
28 Luc LePottier 9 Ann Arbor Pioneer (MI) 6 18:38.4 PR 110.5 14
29 John Vaughan 11 Ann Arbor Huron (MI) 1 18:41.7 PR 110.1 15
30 Glen Luckhardt 9 Saline (MI) 22 18:45.2 PR 109.8
31 Jonathan Kanzelmeyer 10 Ann Arbor Huron (MI) 2 18:46 PR 109.7 16
32 Brayden Dana 12 Saline (MI) 23 18:46.4 109.7
33 Ancel Kalakailo 11 Ann Arbor Pioneer (MI) 7 18:47.6 109.5 17
34 Connor Hoffman 11 Saline (MI) 24 18:53.4 109.0
35 Dominick DeFazio 11 Ann Arbor Pioneer (MI) 8 19:01 108.3
36 Jack Johnson 11 Temperance Bedford (MI) 2 19:01.5 SR 108.2 18
37 Garrik Slawski 10 Saline (MI) 25 19:01.9 PR 108.2
38 Tristan Edwards 10 Ann Arbor Pioneer (MI) 9 19:02.7 PR 108.1
39 Marshall Gardner 12 Saline (MI) 26 19:05.9 SR 107.8
40 David Conzelmann 10 Saline (MI) 27 19:06.3 PR 107.8
41 Alec Greene 10 Saline (MI) 28 19:07.1 107.7
42 Evan Czechowicz 10 Saline (MI) 29 19:08.2 PR 107.6
43 Alec Paxton 9 Saline (MI) 30 19:08.5 PR 107.6
44 Jonathan Charles 11 Saline (MI) 31 19:09.5 107.5
45 Chad Wilson 9 Saline (MI) 32 19:12.8 107.2
46 Joey Leptich 12 Saline (MI) 33 19:19.3 PR 106.5
47 Ethan Burnett 12 Saline (MI) 34 19:19.8 106.5
48 Devin Valliant 10 Ann Arbor Pioneer (MI) 10 19:22.1 106.3
49 Brian Cong 9 Ann Arbor Huron (MI) 3 19:23.2 PR 106.2 19
50 Matthew Rosati 9 Saline (MI) 35 19:27.5 PR 105.8
51 Joe Riggs 9 Ann Arbor Pioneer (MI) 11 19:29.6 105.6
52 Benjamin Suddendorf 10 Saline (MI) 36 19:34.7 PR 105.2
53 James Oh 11 Ann Arbor Pioneer (MI) 12 19:36.1 PR 105.0
54 Matt Militello 9 Saline (MI) 37 19:37.3 PR 104.9
55 Brendan Huehn 9 Ann Arbor Huron (MI) 4 19:38.7 PR 104.8 20
56 Jake Quire 10 Temperance Bedford (MI) 3 19:39 104.8 21
57 Andrew Hiyama 10 Ann Arbor Huron (MI) 5 19:41.3 PR 104.6 22
58 Tommy Erdmann 12 Temperance Bedford (MI) 4 19:45.9 104.2 23
59 Brenden Smith 9 Temperance Bedford (MI) 5 19:46.2 PR 104.1 24
60 Michael Vizzini 12 Saline (MI) 38 19:49.2 PR 103.9
61 Mitchell Dana 10 Saline (MI) 39 19:51.5 103.7
62 Connor Loftus 11 Saline (MI) 40 19:52.3 PR 103.6
63 Anand Saripalli 12 Saline (MI) 41 19:53.1 103.5
64 Mitchell Garrison 12 Saline (MI) 42 19:56.4 103.2
65 Ethan Boyd 12 Saline (MI) 43 19:58.6 SR 103.1
66 Zach Fogel 12 Ann Arbor Pioneer (MI) 13 19:59.3 PR 103.0
67 Spencer Sullivan 10 Temperance Bedford (MI) 6 20:00.7 PR 102.9 25
68 Alexander Mepham 11 Saline (MI) 44 20:03.7 102.6
69 Joseph Bedford 9 Saline (MI) 45 20:11.9 101.9
70 Blake Praschan 9 Saline (MI) 46 20:13.2 PR 101.8
71 Alexander Head 11 Saline (MI) 47 20:15.8 101.6
72 Nicholas Liu 10 Ann Arbor Pioneer (MI) 14 20:17.1 PR 101.5
73 Justin Evans 10 Saline (MI) 48 20:18.1 PR 101.4
74 Avery Farmer 9 Ann Arbor Pioneer (MI) 15 20:18.6 PR 101.4
75 Deniz Karabakal 12 Ann Arbor Huron (MI) 6 20:21.2 101.2 26
76 Benjamin Bentner 11 Saline (MI) 49 20:30.5 PR 100.4
77 Patrick Canavan 10 Saline (MI) 50 20:31.5 PR 100.3
78 Tony Bomia 9 Temperance Bedford (MI) 7 20:31.9 PR 100.3 27
79 Joseph Peterson 9 Saline (MI) 51 20:38.5 PR 99.7
80 Thadeus Beekman 11 Saline (MI) 52 20:41.8 PR 99.5
81 Anthony Soster 10 Temperance Bedford (MI) 8 20:44 PR 99.3
82 Jack Nissen 12 Saline (MI) 53 20:45.5 PR 99.2
83 Anthony Becker 9 Saline (MI) 54 20:45.9 PR 99.2
84 Lakota Nielsen 10 Monroe (CA) 1 20:47.1 PR 99.0 28
85 Ethan Van Sickle 11 Saline (MI) 55 20:49.7 98.8
86 Jackson Hall 10 Ann Arbor Pioneer (MI) 16 20:51.6 98.7
87 Noe Barrell 9 Ann Arbor Pioneer (MI) 17 20:52.2 PR 98.7
88 Kenji Burch 10 Ann Arbor Huron (MI) 7 20:53.8 98.5 29
89 Samuel Rentschler 10 Saline (MI) 56 20:57.2 PR 98.3
90 John Robison 9 Saline (MI) 57 20:59.3 PR 98.1
91 Mehul Kulkarni 11 Saline (MI) 58 21:00 SR 98.0
92 Tong Liu 11 Ann Arbor Skyline (MI) 1 21:00.8 PR 98.0
93 John Monge 9 Saline (MI) 59 21:02.6 PR 97.8
94 Colwyn Fischbach 10 Saline (MI) 60 21:04.7 PR 97.7
95 Grayson Knapp 9 Saline (MI) 61 21:05.6 PR 97.6
96 Cameron Hibbard 11 Saline (MI) 62 21:07.8 SR 97.4
97 Calan Ferguson 10 Ann Arbor Huron (MI) 8 21:15.2 96.9
98 Jerry Chen 10 Ann Arbor Pioneer (MI) 18 21:17.6 SR 96.7
99 Kevin Schnitzer 9 Saline (MI) 63 21:22.7 PR 96.3
100 Allen Chang 10 Ann Arbor Huron (MI) 9 21:24 96.2
101 Matt Gingerich 10 Ann Arbor Huron (MI) 10 21:24.8 PR 96.2
102 Dominic Valentino 10 Ann Arbor Skyline (MI) 2 21:26.1 SR 96.0
103 Isaac Castor 11 Saline (MI) 64 21:31.1 SR 95.7
104 Joseph Enos 11 Saline (MI) 65 21:37.2 PR 95.2
105 Bradley Schnitzer 11 Saline (MI) 66 21:40.6 PR 95.0
106 Brandon Gore 9 Temperance Bedford (MI) 9 21:48.4 SR 94.4
107 Jacob Thomas 9 Ann Arbor Skyline (MI) 3 21:48.7 PR 94.4
108 Martel Isaac 10 Monroe (CA) 2 21:57 93.8 30
109 Nikolai Meinecke 9 Saline (MI) 67 22:00.6 PR 93.5
110 Brendan Hogan 10 Saline (MI) 68 22:05.7 93.2
111 Brandon Laird 9 Ann Arbor Huron (MI) 11 22:08.9 93.0
112 Steven Moore 10 Saline (MI) 69 22:25.2 PR 91.8
113 Joseph Simpson 9 Saline (MI) 70 22:29.6 91.5
114 Richard Wan 11 Ann Arbor Huron (MI) 12 22:37.7 91.0
115 Zachary Worcheck 10 Saline (MI) 71 22:38.1 91.0
116 Caleb Cheng 11 Ann Arbor Huron (MI) 13 22:41.5 PR 90.7
117 Matthew Skonecki 9 Saline (MI) 72 22:48 PR 90.3
118 Matthew Pool 11 Saline (MI) 73 22:48.4 SR 90.3
119 Sam Henke 10 Ann Arbor Pioneer (MI) 19 22:49.8 PR 90.2
120 Hunter Smith 10 Monroe (CA) 3 23:00.7 89.5 31
121 Adam Lewit 11 Ann Arbor Huron (MI) 14 23:01 89.5
122 Shota Tsuji 11 Ann Arbor Skyline (MI) 4 23:06.3 PR 89.1
123 Ryan Yang 9 Ann Arbor Huron (MI) 15 23:19.7 88.2
124 Christopher Combs 9 Saline (MI) 74 23:38 87.1
125 Jordan Heinzerling 9 Monroe (CA) 4 23:42.1 PR 86.9 32
126 Robert Cardwell 9 Ann Arbor Huron (MI) 16 24:11.5 85.1
127 Kurt Geishert 10 Monroe (CA) 5 24:57.1 PR 82.5 33
Something wrong on this page? Report it →